• Join FlightAware (Why Join?)
  • Login
  • US Flag 
03:29PM EDT


 

Airport Tracker/Info


-or-


 

Live Flight TrackerFlight Track Log ✈ EJA122 ✈ 26-Apr-2013 ✈ KIND - KAAO

Flight Track Log - Related Links

Times and Time Zones

All times are in EDT time to prevent confusion due to time zone crossing. See the EJA122 flight status page for this flight to view local times or setup timezone preferences in your user account.

Time Position Orientation Groundspeed Altitude Reporting Facility
EDT Latitude Longitude Course Direction KTS MPH feet Rate Location/Type
01:45PM 39.6833 -86.3167 207° Southwest 164 189 2,600  Level Indianapolis TRACON
01:46PM 39.6667 -86.3833 252° West 228 262 4,900 1,860 Climbing Indianapolis TRACON
01:46PM 39.6714 -86.3992 291° West 195 224 5,000 1,980 Climbing Indianapolis Center
01:47PM 39.6556 -86.5069 259° West 247 284 7,500 2,700 Climbing Indianapolis Center
01:48PM 39.6353 -86.5992 254° West 263 303 10,600 2,220 Climbing Indianapolis Center
01:49PM 39.6111 -86.7072 254° West 297 342 12,200 1,500 Climbing Indianapolis Center
01:50PM 39.5839 -86.8275 254° West 337 388 13,700 1,680 Climbing Indianapolis Center
01:51PM 39.5561 -86.9528 254° West 354 407 15,700 1,800 Climbing Indianapolis Center
01:52PM 39.5281 -87.0772 254° West 357 411 17,500 1,260 Climbing Indianapolis Center
01:53PM 39.5011 -87.1983 254° West 352 405 18,400 1,140 Climbing Indianapolis Center
01:54PM 39.4736 -87.3186 254° West 349 402 19,900 1,500 Climbing Indianapolis Center
01:55PM 39.4439 -87.4575 255° West 343 395 21,600 1,560 Climbing Indianapolis Center
01:56PM 39.4183 -87.5761 254° West 340 391 23,100 1,440 Climbing Indianapolis Center
01:57PM 39.3906 -87.6919 253° West 337 388 24,600 1,440 Climbing Indianapolis Center
01:58PM 39.3625 -87.8111 253° West 332 382 26,100 1,440 Climbing Indianapolis Center
01:59PM 39.3339 -87.9239 252° West 329 379 27,600 1,320 Climbing Indianapolis Center
01:59PM 39.3289 -87.9467 254° West 329 379 27,900 1,320 Climbing Kansas City Center
02:01PM 39.3025 -88.0569 253° West 323 372 29,400 1,440 Climbing Kansas City Center
02:02PM 39.2825 -88.1681 257° West 319 367 30,900 1,200 Climbing Kansas City Center
02:03PM 39.2608 -88.2961 258° West 307 353 32,000 600 Climbing Kansas City Center
02:04PM 39.2425 -88.4083 258° West 315 362 32,200 480 Climbing Kansas City Center
02:05PM 39.2225 -88.5211 257° West 321 369 33,100 840 Climbing Kansas City Center
02:06PM 39.2039 -88.6300 258° West 310 357 34,000 420 Climbing Kansas City Center
02:07PM 39.1836 -88.7389 257° West 310 357 34,000  Level Kansas City Center
02:08PM 39.1647 -88.8514 258° West 315 362 34,000  Level Kansas City Center
02:09PM 39.1394 -88.9797 256° West 328 377 34,000  Level Kansas City Center
02:10PM 39.1169 -89.1058 257° West 335 386 34,000  Level Kansas City Center
02:11PM 39.0967 -89.2233 257° West 337 388 34,000  Level Kansas City Center
02:12PM 39.0739 -89.3511 257° West 340 391 34,000  Level Kansas City Center
02:13PM 39.0522 -89.4692 257° West 340 391 34,000  Level Kansas City Center
02:14PM 39.0297 -89.5878 256° West 343 395 34,000  Level Kansas City Center
02:15PM 39.0067 -89.7161 257° West 344 396 34,000  Level Kansas City Center
02:16PM 38.9853 -89.8356 257° West 344 396 34,000  Level Kansas City Center
02:17PM 38.9606 -89.9636 256° West 345 397 34,000  Level Kansas City Center
02:18PM 38.9381 -90.0783 256° West 345 397 34,000  Level Kansas City Center
02:19PM 38.9147 -90.1975 256° West 342 394 34,000  Level Kansas City Center
02:20PM 38.8947 -90.3194 258° West 347 399 34,000  Level Kansas City Center
02:21PM 38.8719 -90.4425 257° West 353 406 34,000  Level Kansas City Center
02:22PM 38.8519 -90.5650 258° West 347 399 34,000  Level Kansas City Center
02:23PM 38.8333 -90.7031 260° West 350 403 34,000  Level Kansas City Center
02:24PM 38.8169 -90.8247 260° West 351 404 34,000  Level Kansas City Center
02:25PM 38.8022 -90.9478 261° West 351 404 34,000  Level Kansas City Center
02:26PM 38.7858 -91.0711 260° West 353 406 34,000  Level Kansas City Center
02:27PM 38.7658 -91.2189 260° West 353 406 34,000  Level Kansas City Center
02:28PM 38.7503 -91.3431 261° West 353 406 34,000  Level Kansas City Center
02:29PM 38.7328 -91.4656 260° West 353 406 34,000  Level Kansas City Center
02:30PM 38.7164 -91.5892 260° West 353 406 34,000  Level Kansas City Center
02:31PM 38.6967 -91.7300 260° West 353 406 34,000  Level Kansas City Center
02:33PM 38.6783 -91.8553 259° West 356 410 34,000  Level Kansas City Center
02:34PM 38.6608 -91.9806 260° West 357 411 34,000  Level Kansas City Center
02:35PM 38.6425 -92.1050 259° West 357 411 34,000  Level Kansas City Center
02:36PM 38.6236 -92.2303 259° West 359 413 34,000  Level Kansas City Center
02:37PM 38.6053 -92.3572 260° West 361 415 34,000  Level Kansas City Center
02:38PM 38.5825 -92.5056 259° West 358 412 34,000  Level Kansas City Center
02:39PM 38.5644 -92.6308 260° West 358 412 34,000  Level Kansas City Center
02:40PM 38.5461 -92.7564 259° West 359 413 34,000  Level Kansas City Center
02:41PM 38.5253 -92.8831 258° West 363 418 34,000  Level Kansas City Center
02:42PM 38.5067 -93.0097 259° West 363 418 34,000  Level Kansas City Center
02:43PM 38.4872 -93.1361 259° West 364 419 34,000  Level Kansas City Center
02:44PM 38.4683 -93.2636 259° West 365 420 34,000  Level Kansas City Center
02:45PM 38.4447 -93.4147 259° West 363 418 34,000  Level Kansas City Center
02:46PM 38.4247 -93.5422 259° West 366 421 34,000  Level Kansas City Center
02:47PM 38.4047 -93.6700 259° West 367 422 34,000  Level Kansas City Center
02:48PM 38.3847 -93.7989 259° West 369 425 34,000  Level Kansas City Center
02:49PM 38.3647 -93.9278 259° West 370 426 34,000  Level Kansas City Center
02:50PM 38.3431 -94.0567 258° West 371 427 34,000  Level Kansas City Center
02:51PM 38.3219 -94.1897 259° West 371 427 34,000  Level Kansas City Center
02:52PM 38.2989 -94.3322 258° West 369 425 34,000  Level Kansas City Center
02:53PM 38.2786 -94.4550 258° West 370 426 34,000  Level Kansas City Center
02:54PM 38.2556 -94.5994 259° West 370 426 34,000  Level Kansas City Center
02:55PM 38.2361 -94.7222 259° West 370 426 34,000  Level Kansas City Center
02:56PM 38.2131 -94.8672 259° West 372 428 34,000  Level Kansas City Center
02:57PM 38.2008 -94.9908 263° West 371 427 34,000  Level Kansas City Center
02:58PM 38.2017 -95.1406 270° West 379 436 34,000  Level Kansas City Center
02:59PM 38.2022 -95.2683 270° West 376 433 34,000  Level Kansas City Center
03:00PM 38.2025 -95.3964 270° West 377 434 34,000  Level Kansas City Center
03:01PM 38.2036 -95.5458 271° West 376 433 34,000  Level Kansas City Center
03:02PM 38.2044 -95.6719 271° West 372 428 34,000  Level Kansas City Center
03:03PM 38.2044 -95.8189 270° West 372 428 34,000  Level Kansas City Center
03:05PM 38.2044 -95.9453 270° West 373 429 34,000 -540 Level Kansas City Center
03:06PM 38.2042 -96.0942 270° West 376 433 33,000 -1,560 Descending Kansas City Center
03:07PM 38.2039 -96.2281 270° West 387 445 30,900 -2,340 Descending Kansas City Center
03:08PM 38.2039 -96.3819 270° West 394 453 28,200 -2,400 Descending Kansas City Center
03:09PM 38.2025 -96.5075 269° West 394 453 25,900 -2,520 Descending Kansas City Center
03:10PM 38.2028 -96.6439 270° West 388 447 23,100 -3,480 Descending Kansas City Center
03:11PM 38.1986 -96.8267 268° West 379 436 18,300 -3,780 Descending Kansas City Center
03:11PM 38.1917 -96.9053 264° West 358 412 16,300 -3,120 Descending Kansas City Center
03:12PM 38.1856 -96.9283 251° West 348 400 15,600 -3,360 Descending Kansas City Center
03:13PM 38.1342 -97.0025 229° Southwest 313 360 12,600 -2,820 Descending Kansas City Center
03:14PM 38.0669 -97.0425 205° Southwest 279 321 10,600 -1,980 Descending Kansas City Center
03:14PM 38.0525 -97.0497 201° Southwest 285 328 10,200 -900 Descending Kansas City Center
03:15PM 38.0222 -97.1003 233° Southwest 222 255 9,700 -720 Descending Kansas City Center
03:15PM 38.0164 -97.1133 240° Southwest 224 258 9,500 -1,140 Descending Kansas City Center
03:16PM 37.9911 -97.1475 227° Southwest 154 177 8,600 -1,380 Descending Kansas City Center
03:16PM 37.9867 -97.1581 242° Southwest 169 194 8,100 -2,100 Descending Kansas City Center
03:17PM 37.9450 -97.1894 211° Southwest 185 213 6,300 -1,920 Descending Kansas City Center
03:17PM 37.9442 -97.1919 247° West 181 208 6,100 -1,920 Descending Kansas City Center
03:18PM 37.8889 -97.1983 185° South 191 220 4,200 -1,500 Descending Kansas City Center
03:19PM 37.8417 -97.2083 189° South 155 178 3,200 -840 Descending Kansas City Center
03:20PM 37.8144 -97.2100 183° South 111 128 2,600 -720 Descending Kansas City Center
03:20PM 37.8058 -97.2125 193° South 141 162 2,400 -240 Descending Kansas City Center
03:21PM 37.7758 -97.2186 189° South 135 155 2,300 -120 Descending Kansas City Center
03:23PM 37.7476 -97.2211 202° Southwest  Level Estimated
03:30PM 37.7476 -97.2211 202° Southwest  Level Estimated
03:31PM 37.7476 -97.2211 202° Southwest  Level Estimated